Citrus City, Texas
Current Conditions -  °F | °C
As of 8:06 AM on Thursday 27 Nov 2014 (Local Time) from KMFE Reporting Station
Few Clouds Few Clouds  
Wind Chill: 54°   Ceiling: Unl
Heat Index: 54°   Visibility: 9mi
Dew Point: 51°   Wind: 0mph
Humidity: 90%   Direction: NA
Pressure: 30.41"   Gusts: NA
Location:  26.2167°N, 98.325°W
Report Text: KMFE 271406Z 00000KT 9SM FEW002 12/11 A3041 RMK AO2 T01220106
Loading
Personal Weather Stations






























Interactive Weather Map New forecast layout! Learn more

10-Day Weather Forecast

Advertisements
Track Severe Weather on mobile